Time;durP1;ratioP1;P1;durP2;ratioP2;P2;SDS_P1;SDS_P2;PMS_P1;PMS_P2;Temp;Humidity;BMP_temperature;BMP_pressure;BME280_temperature;BME280_humidity;BME280_pressure;Samples;Min_cycle;Max_cycle;Signal;HPM_P1;HPM_P2
2021/01/06 00:00:47;;;;;;;8.40;3.47;;;;;;;4.01;100.00;102245.50;5072823;28;20509;-67
2021/01/06 00:03:22;;;;;;;6.10;3.50;;;;;;;3.99;100.00;102242.09;5072640;28;20047;-66
2021/01/06 00:05:55;;;;;;;7.35;4.20;;;;;;;3.99;100.00;102251.03;5072395;28;20543;-67
2021/01/06 00:08:21;;;;;;;8.10;4.25;;;;;;;3.98;100.00;102240.41;5072594;28;20033;-67
2021/01/06 00:10:52;;;;;;;6.03;3.42;;;;;;;3.97;100.00;102249.53;5072278;28;20043;-67
2021/01/06 00:13:18;;;;;;;7.22;3.67;;;;;;;3.96;100.00;102245.97;5072148;28;20060;-66
2021/01/06 00:15:44;;;;;;;10.70;3.97;;;;;;;3.96;100.00;102247.84;5072281;28;20121;-66
2021/01/06 00:18:11;;;;;;;8.30;3.75;;;;;;;3.93;100.00;102236.34;5054156;28;20036;-67
2021/01/06 00:20:36;;;;;;;11.10;3.47;;;;;;;3.92;100.00;102250.03;5071689;28;20040;-66
2021/01/06 00:23:02;;;;;;;9.00;3.40;;;;;;;3.90;100.00;102244.78;5072047;28;20508;-67
2021/01/06 00:25:31;;;;;;;10.10;3.50;;;;;;;3.88;100.00;102246.81;5054227;28;20517;-66
2021/01/06 00:27:57;;;;;;;8.75;4.07;;;;;;;3.86;100.00;102237.16;5072001;28;20086;-67
2021/01/06 00:30:26;;;;;;;8.50;4.15;;;;;;;3.84;100.00;102234.63;5071711;28;20051;-67
2021/01/06 00:32:52;;;;;;;10.48;3.92;;;;;;;3.83;100.00;102232.94;5071883;28;20036;-66
2021/01/06 00:35:19;;;;;;;5.22;2.92;;;;;;;3.79;100.00;102245.06;5071829;28;20399;-67
2021/01/06 00:37:46;;;;;;;13.55;3.95;;;;;;;3.77;100.00;102238.13;5071761;28;20554;-67
2021/01/06 00:40:12;;;;;;;8.90;3.42;;;;;;;3.74;100.00;102239.31;5072159;28;20036;-67
2021/01/06 00:42:38;;;;;;;8.25;3.67;;;;;;;3.74;100.00;102238.47;5053620;28;20048;-66
2021/01/06 00:45:07;;;;;;;10.32;3.80;;;;;;;3.74;100.00;102239.31;5071535;28;20060;-66
2021/01/06 00:47:33;;;;;;;12.25;3.60;;;;;;;3.74;100.00;102227.66;5071488;28;20045;-67
2021/01/06 00:49:58;;;;;;;8.75;3.72;;;;;;;3.74;100.00;102239.31;5071533;28;20363;-66
2021/01/06 00:52:24;;;;;;;6.72;2.85;;;;;;;3.74;100.00;102236.63;5071591;28;20111;-67
2021/01/06 00:54:50;;;;;;;11.38;3.67;;;;;;;3.74;100.00;102233.91;5071511;28;20033;-67
2021/01/06 00:57:16;;;;;;;6.10;3.42;;;;;;;3.74;100.00;102228.50;5071802;28;20074;-66
2021/01/06 00:59:41;;;;;;;8.07;3.55;;;;;;;3.74;100.00;102233.91;5071402;28;20566;-66
2021/01/06 01:02:07;;;;;;;4.97;3.17;;;;;;;3.76;100.00;102233.75;5071313;28;20122;-66
2021/01/06 01:04:33;;;;;;;9.55;3.50;;;;;;;3.74;100.00;102233.91;5071324;28;20082;-67
2021/01/06 01:06:58;;;;;;;10.35;3.75;;;;;;;3.74;100.00;102228.50;5071767;28;20044;-66
2021/01/06 01:09:24;;;;;;;9.65;3.67;;;;;;;3.73;100.00;102226.81;5053266;28;20068;-66
2021/01/06 01:11:49;;;;;;;8.20;3.80;;;;;;;3.72;100.00;102225.13;5071308;28;20040;-67
2021/01/06 01:14:15;;;;;;;9.73;3.60;;;;;;;3.72;100.00;102225.13;5053185;28;20037;-67
2021/01/06 01:16:46;;;;;;;10.50;4.43;;;;;;;3.72;100.00;102230.53;5071120;28;20040;-67
2021/01/06 01:19:12;;;;;;;11.15;4.32;;;;;;;3.72;100.00;102219.72;5070977;28;20383;-67
2021/01/06 01:21:39;;;;;;;7.55;3.30;;;;;;;3.72;100.00;102222.44;5053093;28;20070;-66
2021/01/06 01:24:05;;;;;;;6.72;4.28;;;;;;;3.73;100.00;102226.81;5070984;28;20032;-67
2021/01/06 01:26:31;;;;;;;5.80;3.70;;;;;;;3.68;100.00;102226.47;5071080;28;20086;-66
2021/01/06 01:28:57;;;;;;;7.53;3.83;;;;;;;3.66;100.00;102220.38;5070775;28;20390;-67
2021/01/06 01:31:36;;;;;;;7.60;3.83;;;;;;;3.64;100.00;102219.69;5070175;28;20555;-67
2021/01/06 01:34:03;;;;;;;6.50;3.63;;;;;;;3.62;100.00;102216.28;5070809;28;20040;-67
2021/01/06 01:36:29;;;;;;;8.38;4.38;;;;;;;3.59;100.00;102208.53;5071014;28;20068;-66
2021/01/06 01:38:55;;;;;;;7.75;4.15;;;;;;;3.57;100.00;102215.94;5070766;28;20033;-66
2021/01/06 01:41:26;;;;;;;8.05;4.32;;;;;;;3.56;100.00;102214.25;5052798;28;20030;-67
2021/01/06 01:43:52;;;;;;;6.55;4.10;;;;;;;3.54;100.00;102221.69;5070873;28;20045;-67
2021/01/06 01:46:46;;;;;;;11.23;4.13;;;;;;;3.53;100.00;102225.38;5070735;28;20036;-66
2021/01/06 01:49:32;;;;;;;9.57;3.97;;;;;;;3.53;100.00;102220.00;5070631;28;20409;-66
2021/01/06 01:52:08;;;;;;;7.53;3.97;;;;;;;3.53;100.00;102214.59;5070801;28;20071;-66
2021/01/06 01:54:34;;;;;;;7.72;4.07;;;;;;;3.54;100.00;102213.56;5070735;28;20418;-67
2021/01/06 01:57:08;;;;;;;8.07;4.60;;;;;;;3.52;100.00;102207.50;5070792;28;20383;-66
2021/01/06 01:59:54;;;;;;;8.32;4.07;;;;;;;3.54;100.00;102218.97;5070473;28;20052;-67
2021/01/06 02:02:44;;;;;;;7.28;3.92;;;;;;;3.53;100.00;102214.59;5052531;28;20443;-67
2021/01/06 02:05:51;;;;;;;8.82;3.97;;;;;;;3.56;100.00;102216.97;5070545;28;20024;-66
2021/01/06 02:08:50;;;;;;;9.80;4.10;;;;;;;3.57;100.00;102224.91;5070110;28;20570;-67
2021/01/06 02:11:33;;;;;;;8.60;3.70;;;;;;;3.58;100.00;102228.44;5070420;28;20033;-67
2021/01/06 02:14:12;;;;;;;10.88;3.72;;;;;;;3.56;100.00;102230.47;5070521;28;20025;-66
2021/01/06 02:17:02;;;;;;;8.27;4.07;;;;;;;3.55;100.00;102223.38;5070675;28;20114;-67
2021/01/06 02:19:36;;;;;;;5.60;3.85;;;;;;;3.57;100.00;102221.34;5070429;28;20078;-67
2021/01/06 02:22:03;;;;;;;12.43;4.40;;;;;;;3.57;100.00;102226.75;5070485;28;20036;-66
2021/01/06 02:24:29;;;;;;;9.48;3.67;;;;;;;3.55;100.00;102226.06;5070497;28;20458;-67
2021/01/06 02:26:55;;;;;;;7.65;3.55;;;;;;;3.55;100.00;102231.47;5070322;28;20106;-66
2021/01/06 02:29:22;;;;;;;7.03;3.88;;;;;;;3.52;100.00;102232.66;5070273;28;20395;-66
2021/01/06 02:31:48;;;;;;;8.30;4.00;;;;;;;3.50;100.00;102223.88;5070475;28;20498;-67
2021/01/06 02:34:13;;;;;;;7.28;3.78;;;;;;;3.51;100.00;102232.81;5052462;28;20053;-67
2021/01/06 02:36:39;;;;;;;5.22;3.78;;;;;;;3.50;100.00;102223.03;5070294;28;20119;-67
2021/01/06 02:39:07;;;;;;;9.13;3.88;;;;;;;3.52;100.00;102234.50;5070434;28;20036;-66
2021/01/06 02:41:33;;;;;;;7.55;3.70;;;;;;;3.50;100.00;102225.72;5070261;28;20553;-67
2021/01/06 02:43:59;;;;;;;8.50;4.57;;;;;;;3.51;100.00;102227.41;5073123;28;20045;-67
2021/01/06 02:46:24;;;;;;;8.52;4.00;;;;;;;3.52;100.00;102229.09;5074055;28;20390;-67
2021/01/06 02:48:50;;;;;;;9.45;3.60;;;;;;;3.54;100.00;102221.69;5073843;28;20037;-67
2021/01/06 02:51:25;;;;;;;9.45;3.92;;;;;;;3.53;100.00;102230.78;5073874;28;20057;-66
2021/01/06 02:54:01;;;;;;;8.77;3.72;;;;;;;3.52;100.00;102227.25;5073959;28;20028;-66
2021/01/06 02:56:30;;;;;;;7.55;3.63;;;;;;;3.49;100.00;102218.63;5074044;28;20039;-66
2021/01/06 02:58:59;;;;;;;9.20;4.15;;;;;;;3.48;100.00;102216.94;5073642;28;20059;-67
2021/01/06 03:01:27;;;;;;;8.52;4.43;;;;;;;3.48;100.00;102222.34;5074009;28;20032;-66
2021/01/06 03:03:54;;;;;;;10.98;4.47;;;;;;;3.50;100.00;102220.31;5074095;28;20036;-67
2021/01/06 03:06:38;;;;;;;7.47;3.97;;;;;;;3.49;100.00;102205.13;5073985;28;20119;-67
2021/01/06 03:09:06;;;;;;;10.45;4.32;;;;;;;3.50;100.00;102212.22;5073686;28;20082;-66
2021/01/06 03:11:32;;;;;;;16.58;4.25;;;;;;;3.49;100.00;102208.66;5073662;28;20045;-67
2021/01/06 03:13:58;;;;;;;7.55;4.10;;;;;;;3.51;100.00;102211.19;5073447;28;20090;-67
2021/01/06 03:16:24;;;;;;;7.95;3.78;;;;;;;3.50;100.00;102209.50;5073705;28;20040;-67
2021/01/06 03:18:51;;;;;;;11.75;4.53;;;;;;;3.50;100.00;102215.75;5073631;28;20039;-66
2021/01/06 03:21:17;;;;;;;7.22;4.00;;;;;;;3.52;100.00;102204.78;5073225;28;20107;-66
2021/01/06 03:23:54;;;;;;;9.82;4.50;;;;;;;3.52;100.00;102219.13;5073390;28;20098;-66
2021/01/06 03:26:23;;;;;;;13.68;4.25;;;;;;;3.52;100.00;102218.28;5073308;28;20051;-66
2021/01/06 03:28:51;;;;;;;8.43;3.90;;;;;;;3.48;100.00;102217.78;5073441;28;20060;-66
2021/01/06 03:31:23;;;;;;;9.25;4.85;;;;;;;3.44;100.00;102212.84;5073183;28;20501;-66
2021/01/06 03:33:57;;;;;;;7.65;4.00;;;;;;;3.44;100.00;102204.72;5073516;28;20396;-67
2021/01/06 03:36:27;;;;;;;10.90;4.60;;;;;;;3.42;100.00;102207.59;5073064;28;20036;-67
2021/01/06 03:39:05;;;;;;;9.25;4.40;;;;;;;3.40;100.00;102214.19;5072975;28;20043;-67
2021/01/06 03:41:34;;;;;;;14.40;5.03;;;;;;;3.41;100.00;102215.88;5073006;28;20486;-67
2021/01/06 03:44:06;;;;;;;8.25;4.40;;;;;;;3.39;100.00;102201.69;5072856;28;20106;-67
2021/01/06 03:46:53;;;;;;;13.65;4.95;;;;;;;3.39;100.00;102215.19;5072931;28;20037;-67
2021/01/06 03:49:55;;;;;;;8.45;4.90;;;;;;;3.39;100.00;102207.09;5072701;28;20051;-66
2021/01/06 03:53:09;;;;;;;8.13;3.95;;;;;;;3.40;100.00;102206.06;5061992;28;20044;-66
2021/01/06 03:55:55;;;;;;;9.88;4.00;;;;;;;3.41;100.00;102205.91;5058403;28;20098;-67
2021/01/06 03:58:30;;;;;;;10.10;4.43;;;;;;;3.41;100.00;102199.66;5072494;28;20064;-67
2021/01/06 04:01:06;;;;;;;8.60;4.35;;;;;;;3.39;100.00;102209.78;5072523;28;20063;-66
2021/01/06 04:03:38;;;;;;;7.93;4.10;;;;;;;3.37;100.00;102203.69;5072500;28;20079;-66
2021/01/06 04:06:12;;;;;;;10.77;5.20;;;;;;;3.38;100.00;102200.00;5072447;28;20041;-67
2021/01/06 04:08:50;;;;;;;6.82;3.85;;;;;;;3.38;100.00;102208.09;5072274;28;20487;-67
2021/01/06 04:11:25;;;;;;;12.57;4.68;;;;;;;3.36;100.00;102202.84;5072409;28;20037;-66
2021/01/06 04:13:50;;;;;;;8.32;5.20;;;;;;;3.32;100.00;102207.75;5072374;28;20207;-67
2021/01/06 04:16:16;;;;;;;10.38;5.57;;;;;;;3.29;100.00;102208.03;5072182;28;20119;-66
2021/01/06 04:18:43;;;;;;;15.63;5.60;;;;;;;3.27;100.00;102207.34;5072004;28;20028;-66
2021/01/06 04:21:10;;;;;;;9.25;5.20;;;;;;;3.24;100.00;102206.84;5072162;28;20491;-66
2021/01/06 04:23:36;;;;;;;11.02;5.43;;;;;;;3.21;100.00;102208.00;5072216;28;20047;-66
2021/01/06 04:26:02;;;;;;;9.77;5.10;;;;;;;3.22;100.00;102206.16;5072077;28;20036;-66
2021/01/06 04:28:32;;;;;;;17.25;5.60;;;;;;;3.22;100.00;102212.41;5071947;28;20123;-67
2021/01/06 04:31:05;;;;;;;9.13;4.90;;;;;;;3.20;100.00;102200.91;5071940;28;20091;-66
2021/01/06 04:33:53;;;;;;;11.57;5.70;;;;;;;3.22;100.00;102206.16;5071823;28;20067;-64
2021/01/06 04:36:23;;;;;;;14.38;5.65;;;;;;;3.22;100.00;102217.81;5071877;28;20042;-64
2021/01/06 04:38:52;;;;;;;14.65;5.43;;;;;;;3.22;100.00;102212.41;5071797;28;20039;-64
2021/01/06 04:41:36;;;;;;;11.38;4.80;;;;;;;3.23;100.00;102211.38;5071829;28;20115;-64
2021/01/06 04:44:28;;;;;;;12.52;5.80;;;;;;;3.24;100.00;102210.38;5071803;28;20040;-64
2021/01/06 04:47:42;;;;;;;7.88;4.90;;;;;;;3.23;100.00;102206.00;5071946;28;20033;-64
2021/01/06 04:50:45;;;;;;;13.05;4.95;;;;;;;3.24;100.00;102210.38;4999197;28;20141;-64
2021/01/06 04:53:54;;;;;;;10.40;4.25;;;;;;;3.24;100.00;102198.75;5071747;28;20279;-64
2021/01/06 04:56:44;;;;;;;11.13;4.90;;;;;;;3.22;100.00;102201.59;5022929;28;20078;-64
2021/01/06 04:59:38;;;;;;;13.50;5.72;;;;;;;3.21;100.00;102199.91;5071451;28;20123;-64
2021/01/06 05:02:04;;;;;;;7.55;4.68;;;;;;;3.20;100.00;102200.91;5071379;28;20031;-64
2021/01/06 05:05:02;;;;;;;9.30;4.85;;;;;;;3.20;100.00;102198.22;5071121;28;20037;-64
2021/01/06 05:08:18;;;;;;;11.63;4.60;;;;;;;3.20;100.00;102200.91;5071190;28;20036;-64
2021/01/06 05:11:13;;;;;;;9.27;5.10;;;;;;;3.17;100.00;102193.16;5009149;28;20092;-64
2021/01/06 05:13:56;;;;;;;10.80;5.18;;;;;;;3.15;100.00;102195.16;5027677;28;20044;-64
2021/01/06 05:16:31;;;;;;;10.88;5.30;;;;;;;3.13;100.00;102196.34;5071257;28;20115;-64
2021/01/06 05:18:57;;;;;;;8.35;4.90;;;;;;;3.11;100.00;102198.31;5071050;28;20024;-64
2021/01/06 05:21:28;;;;;;;6.80;5.35;;;;;;;3.07;100.00;102197.78;5071027;28;20502;-64
2021/01/06 05:24:00;;;;;;;12.70;5.68;;;;;;;3.03;100.00;102201.84;5071004;28;20107;-64
2021/01/06 05:26:27;;;;;;;7.75;5.20;;;;;;;3.01;100.00;102198.44;5071045;28;20063;-64
2021/01/06 05:28:52;;;;;;;15.27;6.68;;;;;;;2.99;100.00;102203.16;5070896;28;20036;-64
2021/01/06 05:31:18;;;;;;;11.75;5.07;;;;;;;2.96;100.00;102190.84;5071043;28;20051;-64
2021/01/06 05:33:48;;;;;;;9.35;5.65;;;;;;;2.95;100.00;102199.06;5070910;28;20041;-64
2021/01/06 05:36:17;;;;;;;11.05;5.68;;;;;;;2.93;100.00;102201.06;5071060;28;20071;-64
2021/01/06 05:38:43;;;;;;;11.05;5.93;;;;;;;2.91;100.00;102193.16;5070684;28;20037;-64
2021/01/06 05:41:08;;;;;;;6.72;5.40;;;;;;;2.90;100.00;102193.31;5070813;28;20043;-64
2021/01/06 05:43:42;;;;;;;11.35;6.18;;;;;;;2.89;100.00;102199.72;5053124;28;20043;-64
2021/01/06 05:46:26;;;;;;;9.85;5.78;;;;;;;2.88;100.00;102203.41;5070808;28;20035;-64
2021/01/06 05:49:00;;;;;;;13.88;5.90;;;;;;;2.84;100.00;102212.84;5070692;28;20058;-64
2021/01/06 05:51:34;;;;;;;10.30;6.05;;;;;;;2.82;100.00;102209.47;5070825;28;20037;-64
2021/01/06 05:54:26;;;;;;;9.10;6.15;;;;;;;2.83;100.00;102203.06;5070739;28;20040;-64
2021/01/06 05:56:51;;;;;;;8.63;6.22;;;;;;;2.82;100.00;102213.00;5070684;28;20032;-64
2021/01/06 05:59:23;;;;;;;13.02;5.85;;;;;;;2.82;100.00;102215.69;5070402;28;20083;-64
2021/01/06 06:02:27;;;;;;;7.45;5.32;;;;;;;2.80;100.00;102217.72;5070632;28;20028;-64
2021/01/06 06:05:30;;;;;;;11.23;5.80;;;;;;;2.79;100.00;102223.28;5070615;28;20048;-64
2021/01/06 06:08:17;;;;;;;9.50;5.28;;;;;;;2.82;100.00;102220.25;5070609;28;20041;-64
2021/01/06 06:11:20;;;;;;;9.80;5.00;;;;;;;2.83;100.00;102221.94;5070442;28;20040;-64
2021/01/06 06:14:13;;;;;;;8.55;5.63;;;;;;;2.86;100.00;102229.72;5070497;28;20067;-64
2021/01/06 06:17:03;;;;;;;8.38;5.63;;;;;;;2.85;100.00;102226.16;5070649;28;20046;-64
2021/01/06 06:20:07;;;;;;;10.93;6.00;;;;;;;2.84;100.00;102220.94;5074266;28;20460;-64
2021/01/06 06:22:39;;;;;;;13.98;8.07;;;;;;;2.82;100.00;102228.34;5074455;28;20043;-64
2021/01/06 06:25:27;;;;;;;11.50;6.78;;;;;;;2.78;100.00;102227.81;5074415;28;20024;-64
2021/01/06 06:28:18;;;;;;;15.35;6.75;;;;;;;2.73;100.00;102227.41;5074204;28;20040;-64
2021/01/06 06:30:58;;;;;;;16.08;6.25;;;;;;;2.70;100.00;102233.97;5074297;28;20035;-67
2021/01/06 06:33:33;;;;;;;9.10;6.00;;;;;;;2.67;100.00;102228.06;5056328;28;20063;-67
2021/01/06 06:36:10;;;;;;;10.02;5.28;;;;;;;2.66;100.00;102226.38;5056258;28;20114;-66
2021/01/06 06:38:47;;;;;;;7.05;5.15;;;;;;;2.67;100.00;102234.28;5074062;28;20056;-67
2021/01/06 06:41:22;;;;;;;11.82;6.50;;;;;;;2.67;100.00;102233.44;5074161;28;20066;-67
2021/01/06 06:43:49;;;;;;;;;;;;;;;2.69;100.00;102229.59;5074436;28;20064;-67
2021/01/06 06:47:06;;;;;;;12.55;6.53;;;;;;;2.68;100.00;102236.00;5056084;28;19977;-67
2021/01/06 06:50:16;;;;;;;14.98;7.35;;;;;;;2.69;100.00;102243.06;5047781;28;20056;-67
2021/01/06 06:52:56;;;;;;;10.05;6.60;;;;;;;2.69;100.00;102253.03;5011779;28;20400;-66
2021/01/06 06:55:31;;;;;;;8.05;6.40;;;;;;;2.69;100.00;102242.22;5067351;28;20047;-67
2021/01/06 06:58:05;;;;;;;9.20;6.88;;;;;;;2.66;100.00;102248.78;5073704;28;20562;-66
2021/01/06 07:00:35;;;;;;;;;;;;;;;2.66;100.00;102258.72;5074122;28;20028;-66
2021/01/06 07:03:03;;;;;;;8.90;6.80;;;;;;;2.65;100.00;102257.88;5073697;28;19912;-66
2021/01/06 07:05:36;;;;;;;14.00;7.68;;;;;;;2.64;100.00;102256.19;5073583;28;20047;-66
2021/01/06 07:08:08;;;;;;;13.77;7.97;;;;;;;2.62;100.00;102260.06;5073542;28;20230;-67
2021/01/06 07:10:41;;;;;;;12.43;7.10;;;;;;;2.61;100.00;102259.22;5073536;28;20044;-66
2021/01/06 07:13:14;;;;;;;13.27;7.35;;;;;;;2.61;100.00;102261.06;5073496;28;20505;-67
2021/01/06 07:15:48;;;;;;;10.35;6.53;;;;;;;2.59;100.00;102263.88;5073481;28;20056;-66
2021/01/06 07:18:34;;;;;;;11.68;6.78;;;;;;;2.58;100.00;102275.69;5073335;28;20086;-67
2021/01/06 07:21:05;;;;;;;11.15;7.95;;;;;;;2.57;100.00;102275.84;5073130;28;20040;-67
2021/01/06 07:23:34;;;;;;;8.55;7.25;;;;;;;2.56;100.00;102283.06;5073237;28;20043;-66
2021/01/06 07:26:04;;;;;;;11.27;7.05;;;;;;;2.56;100.00;102285.78;5073387;28;20033;-67
2021/01/06 07:28:30;;;;;;;11.27;7.80;;;;;;;2.54;100.00;102287.78;5072683;28;20078;-67
2021/01/06 07:31:27;;;;;;;14.07;7.95;;;;;;;2.53;100.00;102291.47;5072324;28;20044;-67
2021/01/06 07:34:00;;;;;;;10.93;9.05;;;;;;;2.50;100.00;102283.72;5072721;28;20044;-67
2021/01/06 07:36:32;;;;;;;12.73;8.68;;;;;;;2.48;100.00;102285.72;5073129;28;20376;-67
2021/01/06 07:38:59;;;;;;;16.90;8.98;;;;;;;2.46;100.00;102285.03;5055161;28;20029;-67
2021/01/06 07:41:27;;;;;;;11.60;9.00;;;;;;;2.43;100.00;102288.03;5073083;28;20546;-67
2021/01/06 07:44:05;;;;;;;13.07;8.57;;;;;;;2.41;100.00;102292.69;5072890;28;20601;-66
2021/01/06 07:46:47;;;;;;;14.15;8.52;;;;;;;2.38;100.00;102287.63;5073278;28;20431;-66
2021/01/06 07:49:32;;;;;;;12.57;8.98;;;;;;;2.36;100.00;102282.38;5072656;28;20063;-66
2021/01/06 07:52:36;;;;;;;14.13;9.15;;;;;;;2.36;100.00;102289.63;5072853;28;20031;-67
2021/01/06 07:55:33;;;;;;;11.25;8.35;;;;;;;2.34;100.00;102283.53;5072698;28;20036;-66
2021/01/06 07:58:16;;;;;;;14.90;9.27;;;;;;;2.33;100.00;102295.31;5072677;28;20044;-66
2021/01/06 08:00:54;;;;;;;11.00;8.75;;;;;;;2.30;100.00;102288.41;5072619;28;20058;-66
2021/01/06 08:03:37;;;;;;;15.00;8.15;;;;;;;2.33;100.00;102281.84;5072500;28;20067;-67
2021/01/06 08:06:04;;;;;;;10.15;7.15;;;;;;;2.36;100.00;102289.63;5072479;28;20050;-67
2021/01/06 08:08:47;;;;;;;10.38;5.82;;;;;;;2.43;100.00;102296.13;5072329;28;20043;-66
2021/01/06 08:11:16;;;;;;;10.65;7.28;;;;;;;2.44;100.00;102297.81;5072288;28;20041;-66
2021/01/06 08:13:47;;;;;;;11.02;7.45;;;;;;;2.47;100.00;102297.50;5072347;28;20047;-67
2021/01/06 08:16:31;;;;;;;14.35;7.85;;;;;;;2.46;100.00;102305.75;5072344;28;20079;-66
2021/01/06 08:19:21;;;;;;;14.05;7.45;;;;;;;2.47;100.00;102304.75;5072113;28;20029;-66
2021/01/06 08:22:11;;;;;;;14.20;7.80;;;;;;;2.46;100.00;102317.38;5061304;28;20051;-66
2021/01/06 08:24:44;;;;;;;12.43;8.40;;;;;;;2.45;100.00;102317.53;5072050;28;20502;-67
2021/01/06 08:27:27;;;;;;;10.43;7.80;;;;;;;2.45;100.00;102315.69;5072066;28;20029;-67
2021/01/06 08:30:16;;;;;;;18.23;7.53;;;;;;;2.42;100.00;102333.00;5053855;28;20131;-66
2021/01/06 08:32:42;;;;;;;16.08;8.32;;;;;;;2.41;100.00;102327.75;5072199;28;20031;-66
2021/01/06 08:35:16;;;;;;;19.52;8.70;;;;;;;2.39;100.00;102327.91;5071771;28;20465;-67
2021/01/06 08:37:42;;;;;;;14.27;8.95;;;;;;;2.37;100.00;102331.75;5071971;28;20111;-67
2021/01/06 08:40:29;;;;;;;13.40;8.68;;;;;;;2.37;100.00;102329.06;5053432;28;20036;-67
2021/01/06 08:42:55;;;;;;;12.27;9.00;;;;;;;2.37;100.00;102334.47;5071765;28;20547;-66
2021/01/06 08:45:34;;;;;;;11.70;9.43;;;;;;;2.34;100.00;102327.53;5071626;28;20159;-66
2021/01/06 08:48:23;;;;;;;11.35;8.82;;;;;;;2.35;100.00;102331.06;5071752;28;20498;-66
2021/01/06 08:50:49;;;;;;;12.70;9.30;;;;;;;2.35;100.00;102325.69;5071606;28;20526;-67
2021/01/06 08:53:15;;;;;;;18.55;8.60;;;;;;;2.37;100.00;102323.66;5071440;28;20303;-66
2021/01/06 08:55:53;;;;;;;14.00;9.40;;;;;;;2.40;100.00;102328.75;5071578;28;20074;-67
2021/01/06 08:58:20;;;;;;;10.75;8.75;;;;;;;2.42;100.00;102338.38;5071221;28;20052;-67
2021/01/06 09:00:45;;;;;;;15.82;9.60;;;;;;;2.46;100.00;102338.97;5074238;28;20037;-65
2021/01/06 09:03:38;;;;;;;13.85;8.60;;;;;;;2.52;100.00;102341.03;5083223;28;20028;-65
2021/01/06 09:06:16;;;;;;;12.50;8.50;;;;;;;2.56;100.00;102333.47;5079665;28;20132;-66
2021/01/06 09:09:04;;;;;;;11.35;8.52;;;;;;;2.58;100.00;102335.00;5090995;28;20343;-67
2021/01/06 09:11:43;;;;;;;11.98;8.75;;;;;;;2.63;100.00;102339.97;5072133;28;20032;-65
2021/01/06 09:14:20;;;;;;;11.75;9.25;;;;;;;2.65;100.00;102338.81;5070720;28;20364;-67
2021/01/06 09:16:51;;;;;;;15.20;7.95;;;;;;;2.69;100.00;102339.34;5069655;28;20032;-67
2021/01/06 09:19:39;;;;;;;11.60;8.02;;;;;;;2.75;100.00;102343.28;5083553;28;20390;-63
2021/01/06 09:22:05;;;;;;;11.02;7.40;;;;;;;2.82;100.00;102345.22;5071016;28;20029;-64
2021/01/06 09:24:36;;;;;;;11.23;7.38;;;;;;;2.89;100.00;102342.72;5070686;28;20039;-66
2021/01/06 09:27:10;;;;;;;15.57;6.90;;;;;;;2.97;100.00;102348.22;5070255;28;20474;-65
2021/01/06 09:29:38;;;;;;;10.57;7.55;;;;;;;3.05;100.00;102356.38;5071696;28;20540;-68
2021/01/06 09:32:11;;;;;;;11.07;7.20;;;;;;;3.13;100.00;102353.75;5070737;28;20536;-69
2021/01/06 09:34:42;;;;;;;8.85;7.50;;;;;;;3.22;100.00;102352.81;5071960;28;20525;-66
2021/01/06 09:37:31;;;;;;;9.75;7.50;;;;;;;3.30;100.00;102344.78;5079055;28;20596;-66
2021/01/06 09:40:16;;;;;;;11.60;7.43;;;;;;;3.42;100.00;102347.19;5082190;28;20046;-69
2021/01/06 09:42:43;;;;;;;11.13;7.40;;;;;;;3.53;100.00;102334.28;5052597;28;20029;-68
2021/01/06 09:45:29;;;;;;;13.40;8.05;;;;;;;3.66;100.00;102330.31;5065323;28;20047;-66
2021/01/06 09:48:01;;;;;;;9.63;7.53;;;;;;;3.77;100.00;102336.28;5063384;28;20475;-63
2021/01/06 09:50:52;;;;;;;10.00;7.30;;;;;;;3.87;100.00;102334.31;5072641;28;20588;-64
2021/01/06 09:53:22;;;;;;;13.13;8.07;;;;;;;3.96;100.00;102335.19;5086402;28;20587;-65
2021/01/06 09:55:51;;;;;;;10.88;6.90;;;;;;;4.04;100.00;102340.63;5073709;28;20036;-68
2021/01/06 09:58:20;;;;;;;8.57;7.25;;;;;;;4.11;100.00;102338.13;5070235;28;20103;-68
2021/01/06 10:00:55;;;;;;;8.52;7.25;;;;;;;4.19;100.00;102338.16;5070691;28;20040;-68
2021/01/06 10:03:26;;;;;;;9.02;6.88;;;;;;;4.29;100.00;102346.13;5070341;28;20036;-68
2021/01/06 10:06:14;;;;;;;10.15;6.90;;;;;;;4.34;100.00;102339.22;5070659;28;20058;-68
2021/01/06 10:08:59;;;;;;;12.07;7.35;;;;;;;4.32;100.00;102346.63;5070049;28;20036;-67
2021/01/06 10:11:43;;;;;;;;;;;;;;;4.39;100.00;102341.44;5091253;28;20038;-68
2021/01/06 10:14:17;;;;;;;8.52;7.22;;;;;;;4.46;100.00;102335.19;5090391;28;19915;-68
2021/01/06 10:16:53;;;;;;;8.50;7.28;;;;;;;4.58;100.00;102329.47;5090811;28;20040;-68
2021/01/06 10:19:37;;;;;;;12.93;7.53;;;;;;;4.64;100.00;102345.03;5090521;28;20028;-68
2021/01/06 10:22:24;;;;;;;10.13;7.28;;;;;;;4.65;100.00;102330.50;5090609;28;20392;-68
2021/01/06 10:25:26;;;;;;;16.08;7.65;;;;;;;4.68;100.00;102335.56;5090721;28;20108;-67
2021/01/06 10:27:56;;;;;;;12.63;7.70;;;;;;;4.59;100.00;102336.56;5049610;28;20068;-69
2021/01/06 10:30:25;;;;;;;13.98;7.82;;;;;;;4.53;100.00;102322.72;5090364;28;20043;-68
2021/01/06 10:33:09;;;;;;;12.02;8.07;;;;;;;4.43;100.00;102332.81;5090457;28;20035;-68
2021/01/06 10:35:43;;;;;;;8.85;6.97;;;;;;;4.44;100.00;102322.84;5090493;28;20047;-70
2021/01/06 10:38:28;;;;;;;;;;;;;;;4.40;100.00;102333.16;5090955;28;20036;-68
2021/01/06 10:41:09;;;;;;;6.65;5.35;;;;;;;4.45;100.00;102325.38;5090584;28;19916;-68
2021/01/06 10:43:38;;;;;;;7.18;5.10;;;;;;;4.54;100.00;102327.09;5070497;28;20132;-67
2021/01/06 10:46:38;;;;;;;8.10;5.53;;;;;;;4.56;100.00;102320.69;5070004;28;20043;-67
2021/01/06 10:49:06;;;;;;;9.05;5.57;;;;;;;4.58;100.00;102322.19;5070210;28;20033;-67
2021/01/06 10:52:06;;;;;;;8.40;4.22;;;;;;;4.67;100.00;102317.63;5090187;28;20409;-67
2021/01/06 10:54:38;;;;;;;7.00;4.38;;;;;;;4.67;100.00;102312.22;5036290;28;20072;-68
2021/01/06 10:57:15;;;;;;;5.60;4.55;;;;;;;4.68;100.00;102319.31;5090198;28;20474;-65
2021/01/06 11:00:11;;;;;;;8.48;4.85;;;;;;;4.69;100.00;102307.50;5090009;28;20509;-66
2021/01/06 11:02:55;;;;;;;;;;;;;;;4.69;100.00;102299.41;5090591;28;20439;-65
2021/01/06 11:05:27;;;;;;;8.32;4.50;;;;;;;4.69;100.00;102299.41;5075186;28;20388;-65
2021/01/06 11:08:20;;;;;;;7.95;5.07;;;;;;;4.68;100.00;102287.69;5093842;28;20036;-65
2021/01/06 11:10:46;;;;;;;5.55;4.03;;;;;;;4.67;100.00;102290.56;5093707;28;20071;-65
2021/01/06 11:13:17;;;;;;;6.45;4.15;;;;;;;4.66;100.00;102283.47;5075350;28;20078;-68
2021/01/06 11:15:48;;;;;;;8.57;3.92;;;;;;;4.65;100.00;102287.19;5093691;28;20101;-67
2021/01/06 11:18:19;;;;;;;4.25;3.88;;;;;;;4.67;100.00;102287.88;5093610;28;20089;-68
2021/01/06 11:20:49;;;;;;;7.13;3.88;;;;;;;4.69;100.00;102272.34;5093566;28;20381;-68
2021/01/06 11:23:28;;;;;;;4.30;3.90;;;;;;;4.75;100.00;102272.50;5093605;28;20032;-67
2021/01/06 11:25:55;;;;;;;5.75;4.30;;;;;;;4.80;100.00;102269.25;5093387;28;20042;-68
2021/01/06 11:29:11;;;;;;;7.50;4.00;;;;;;;4.85;100.00;102267.72;5093235;28;20474;-68
2021/01/06 11:31:42;;;;;;;6.65;4.25;;;;;;;4.89;100.00;102257.44;4991305;28;20497;-69
2021/01/06 11:34:07;;;;;;;7.03;4.35;;;;;;;4.94;100.00;102265.88;5020405;28;20097;-65
2021/01/06 11:36:58;;;;;;;5.95;3.90;;;;;;;4.97;100.00;102254.72;5093230;28;20032;-65
2021/01/06 11:39:27;;;;;;;9.55;4.03;;;;;;;5.01;100.00;102252.50;5093122;28;20047;-67
2021/01/06 11:42:05;;;;;;;7.50;4.05;;;;;;;4.97;100.00;102238.47;5075135;28;20043;-68
2021/01/06 11:44:52;;;;;;;5.72;4.13;;;;;;;4.96;100.00;102236.78;5092961;28;20043;-67
2021/01/06 11:47:35;;;;;;;4.57;3.85;;;;;;;4.95;100.00;102240.50;5072043;28;20040;-68
2021/01/06 11:50:15;;;;;;;6.18;3.60;;;;;;;4.97;100.00;102243.03;5072734;28;20466;-67
2021/01/06 11:52:46;;;;;;;4.07;3.53;;;;;;;4.98;100.00;102240.16;5073126;28;20068;-67
2021/01/06 11:55:20;;;;;;;6.78;3.60;;;;;;;4.95;100.00;102235.09;5072656;28;20040;-68
2021/01/06 11:58:00;;;;;;;7.95;4.20;;;;;;;4.95;100.00;102240.50;5072691;28;20036;-67
2021/01/06 12:00:31;;;;;;;5.20;3.70;;;;;;;4.94;100.00;102233.41;5072495;28;20431;-68
2021/01/06 12:03:06;;;;;;;4.05;3.60;;;;;;;4.93;100.00;102231.72;5072582;28;20072;-67